Enter the Airport ICAO Code

Search by Airport or City

Current Weather

KFXE | Fort Lauderdale Executive Airport

Fort Lauderdale, Florida, United States

Last Update 2 Minutes Ago

Clear Sky at Low Altitude

Temperature of 29 ºC

Light to Moderate Winds from SouthEast

Temperature

29 ºC

Dew Point Temperature

24 ºC

Relative Humidity

74.6 %

Wind Direction

SouthEast (140º, Without Significant Variations)

Wind Velocity

13 km/h (07 kt)

Gusts

None

Visibility

Greater than 10 Miles

Sea Level Pressure

30.08 inHg (Inches of Mercury)

Layers of Clouds

None

METAR KFXE 191153Z 14007KT 10SM CLR 29/24 A3008 RMK AO2 SLP189 T02890244 10289 20272 53016

Weather Forecast

KFXE | Fort Lauderdale Executive Airport

Fort Lauderdale, Florida, United States

Forecast valid for the next 24 Hours

From now on it is expected:

Mostly Cloudy Sky

Light to Moderate Winds from SouthEast

In 2 hours it is expected the begining of:

Moderate Winds from SouthEast

In 15 hours it is expected the begining of:

Light to Moderate Winds from SouthEast

Maximum Temperature

No Data

Minimum Temperature

No Data

TAF KFXE 191120Z 1912/2012 12006KT P6SM SCT025 BKN150 FM191400 12012KT P6SM SCT030 BKN100 FM200300 15006KT P6SM SCT035 BKN120